KGPZ

Details ICAO KGPZ (GPZ)
Name GRAND RAPIDS ITASCA CO GORDON NEWSTROM
Region United States
Timezone America/Chicago (UTC-5.0)
Plans Departing 3
Arriving 13
Stats Elevation 1,355 ft / 413 m (AMSL)
Location 47.212522° -93.509130°
Runways 3
Magnetic Variation 0.122° E
Sunrise 2018-05-27 10:27:02 UTC / 2018-05-27 05:27:02 Local
Sunset 2018-05-28 01:58:18 UTC / 2018-05-27 20:58:18 Local
Advertisement - Login to hide

Runways

ID Width Length Bearing (true) Bearing (mag) Surface Threshold Offset Overrun Length
04 150 ft / 46 m 2,965 ft / 904 m 45.61° 45.49° Grass 0 ft / 0 m 0 ft / 0 m
10 150 ft / 46 m 1,446 ft / 441 m 104.45° 104.33° Grass 0 ft / 0 m 0 ft / 0 m
16 100 ft / 30 m 5,757 ft / 1,755 m 165.66° 165.54° Asphalt 423 ft / 129 m 582 ft / 177 m
22 150 ft / 46 m 2,965 ft / 904 m 225.61° 225.49° Grass 0 ft / 0 m 0 ft / 0 m
28 150 ft / 46 m 1,446 ft / 441 m 284.45° 284.33° Grass 0 ft / 0 m 0 ft / 0 m
34 100 ft / 30 m 5,757 ft / 1,755 m 345.67° 345.55° Asphalt 0 ft / 0 m 250 ft / 76 m

Map

Weather


0- 5 10 15 20 25 30 35+ Temperature / ° C

Clouds and Precipitation
Forecast for 2018-05-27 12:00 UTC. Updated 3 hours ago

Ground ~20,000 ft ~40,000 ft Winds

METAR

KGPZ 271356Z AUTO 00000KT 10SM 21/17 A2991 RMK AO2 SLP124 T02110167 $

TAF

Not found

Frequencies

Unicom 122.80 MHz CTAF/UNICOM
Warning: Do not use this data for real-world aviation or navigation. No guarantee of current accuracy is given.